createdAt,value
2023-03-10T00:00:30.772Z,2.61
2023-03-10T00:03:18.702Z,2.61
2023-03-10T00:05:52.885Z,2.58
2023-03-10T00:08:39.713Z,2.52
2023-03-10T00:11:15.991Z,2.49
2023-03-10T00:14:02.680Z,2.50
2023-03-10T00:16:43.696Z,2.48
2023-03-10T00:19:37.641Z,2.44
2023-03-10T00:22:24.702Z,2.38
2023-03-10T00:24:57.795Z,2.33
2023-03-10T00:27:44.696Z,2.30
2023-03-10T00:30:18.809Z,2.28
2023-03-10T00:33:05.724Z,2.27
2023-03-10T00:35:38.870Z,2.25
2023-03-10T00:38:25.703Z,2.25
2023-03-10T00:41:05.823Z,2.24
2023-03-10T00:43:52.753Z,2.22
2023-03-10T00:46:33.716Z,2.22
2023-03-10T00:49:29.739Z,2.24
2023-03-10T00:52:16.710Z,2.23
2023-03-10T00:54:49.984Z,2.20
2023-03-10T00:57:36.726Z,2.16
2023-03-10T01:00:09.870Z,2.14
2023-03-10T01:02:57.715Z,2.11
2023-03-10T01:05:30.800Z,2.10
2023-03-10T01:08:17.718Z,2.08
2023-03-10T01:10:52.893Z,2.06
2023-03-10T01:13:41.179Z,2.03
2023-03-10T01:16:14.900Z,2.01
2023-03-10T01:19:02.737Z,2.02
2023-03-10T01:21:38.874Z,2.01
2023-03-10T01:24:25.704Z,2.01
2023-03-10T01:26:58.860Z,2.02
2023-03-10T01:29:45.728Z,2.01
2023-03-10T01:32:18.856Z,2.02
2023-03-10T01:35:05.719Z,2.04
2023-03-10T01:37:39.816Z,2.02
2023-03-10T01:40:26.748Z,2.03
2023-03-10T01:43:27.736Z,2.04
2023-03-10T01:47:15.781Z,2.04
2023-03-10T01:50:02.725Z,2.06
2023-03-10T01:52:45.736Z,2.06
2023-03-10T01:55:37.719Z,2.05
2023-03-10T01:58:13.880Z,2.08
2023-03-10T02:01:01.818Z,2.09
2023-03-10T02:03:42.866Z,2.05
2023-03-10T02:06:31.752Z,2.07
2023-03-10T02:09:14.716Z,2.06
2023-03-10T02:12:11.744Z,2.06
2023-03-10T02:14:59.744Z,2.05
2023-03-10T02:17:33.881Z,2.05
2023-03-10T02:21:02.733Z,2.04
2023-03-10T02:24:00.859Z,2.04
2023-03-10T02:27:02.761Z,2.05
2023-03-10T02:29:59.645Z,2.04
2023-03-10T02:32:57.757Z,2.05
2023-03-10T02:35:51.788Z,2.06
2023-03-10T02:38:38.827Z,2.06
2023-03-10T02:41:22.859Z,2.03
2023-03-10T02:44:14.745Z,2.01
2023-03-10T02:46:47.881Z,2.01
2023-03-10T02:49:34.739Z,2.01
2023-03-10T02:52:20.778Z,2.01
2023-03-10T02:55:14.748Z,1.99
2023-03-10T02:58:01.774Z,1.97
2023-03-10T03:00:35.848Z,1.97
2023-03-10T03:03:25.702Z,1.93
2023-03-10T03:05:58.856Z,1.92
2023-03-10T03:08:45.752Z,1.91
2023-03-10T03:11:26.768Z,1.86
2023-03-10T03:14:14.760Z,1.85
2023-03-10T03:16:47.917Z,1.83
2023-03-10T03:19:34.777Z,1.81
2023-03-10T03:22:07.848Z,1.77
2023-03-10T03:24:54.760Z,1.75
2023-03-10T03:27:27.845Z,1.75
2023-03-10T03:30:21.013Z,1.72
2023-03-10T03:33:02.754Z,1.71
2023-03-10T03:35:50.823Z,1.69
2023-03-10T03:38:23.892Z,1.66
2023-03-10T03:41:10.768Z,1.64
2023-03-10T03:43:43.862Z,1.67
2023-03-10T03:46:30.865Z,1.62
2023-03-10T03:49:03.850Z,1.60
2023-03-10T03:51:50.793Z,1.57
2023-03-10T03:54:23.974Z,1.57
2023-03-10T03:57:10.781Z,1.55
2023-03-10T03:59:43.930Z,1.54
2023-03-10T04:02:30.886Z,1.46
2023-03-10T04:05:11.779Z,1.45
2023-03-10T04:07:58.790Z,1.44
2023-03-10T04:10:38.780Z,1.40
2023-03-10T04:13:32.774Z,1.38
2023-03-10T04:16:19.863Z,1.35
2023-03-10T04:18:59.813Z,1.33
2023-03-10T04:21:46.769Z,1.32
2023-03-10T04:24:26.795Z,1.31
2023-03-10T04:27:15.779Z,1.28
2023-03-10T04:29:48.981Z,1.27
2023-03-10T04:32:35.857Z,1.24
2023-03-10T04:35:15.796Z,1.20
2023-03-10T04:38:02.794Z,1.17
2023-03-10T04:40:42.781Z,1.11
2023-03-10T04:43:36.803Z,1.10
2023-03-10T04:46:23.871Z,1.07
2023-03-10T04:49:03.808Z,1.04
2023-03-10T04:51:50.783Z,1.01
2023-03-10T04:54:23.885Z,0.98
2023-03-10T04:57:10.825Z,0.97
2023-03-10T04:59:43.988Z,0.95
2023-03-10T05:02:30.815Z,0.94
2023-03-10T05:05:03.909Z,0.92
2023-03-10T05:07:50.803Z,0.89
2023-03-10T05:10:23.914Z,0.87
2023-03-10T05:13:10.797Z,0.82
2023-03-10T05:15:44.016Z,0.81
2023-03-10T05:18:30.787Z,0.84
2023-03-10T05:21:05.374Z,0.85
2023-03-10T05:23:51.785Z,0.83
2023-03-10T05:26:24.971Z,0.81
2023-03-10T05:29:11.815Z,0.80
2023-03-10T05:31:44.935Z,0.83
2023-03-10T05:34:34.813Z,0.86
2023-03-10T05:37:07.929Z,0.90
2023-03-10T05:39:54.802Z,0.91
2023-03-10T05:42:34.815Z,0.94
2023-03-10T05:45:29.796Z,0.93
2023-03-10T05:48:23.836Z,0.94
2023-03-10T05:51:10.811Z,0.97
2023-03-10T05:53:50.842Z,1.01
2023-03-10T05:56:32.817Z,1.04
2023-03-10T05:59:26.808Z,1.14
2023-03-10T06:02:13.823Z,1.26
2023-03-10T06:04:53.829Z,1.34
2023-03-10T06:07:47.819Z,1.49
2023-03-10T06:10:34.812Z,1.66
2023-03-10T06:13:07.937Z,1.81
2023-03-10T06:15:59.846Z,1.98
2023-03-10T06:18:40.799Z,2.16
2023-03-10T06:21:27.825Z,2.31
2023-03-10T06:24:00.948Z,2.45
2023-03-10T06:26:48.833Z,2.62
2023-03-10T06:29:21.916Z,2.78
2023-03-10T06:32:08.911Z,2.94
2023-03-10T06:34:41.969Z,3.11
2023-03-10T06:37:28.829Z,3.28
2023-03-10T06:40:01.937Z,3.45
2023-03-10T06:42:56.824Z,3.63
2023-03-10T06:45:50.972Z,3.84
2023-03-10T06:48:44.843Z,4.06
2023-03-10T06:51:38.830Z,4.27
2023-03-10T06:54:25.843Z,4.41
2023-03-10T06:57:05.785Z,4.58
2023-03-10T06:59:59.832Z,4.78
2023-03-10T07:02:46.844Z,5.09
2023-03-10T07:05:29.847Z,5.29
2023-03-10T07:08:23.847Z,5.49
2023-03-10T07:11:17.850Z,5.67
2023-03-10T07:14:11.839Z,5.85
2023-03-10T07:16:58.900Z,6.03
2023-03-10T07:19:32.144Z,6.21
2023-03-10T07:22:18.844Z,6.39
2023-03-10T07:24:51.965Z,6.58
2023-03-10T07:27:38.861Z,6.81
2023-03-10T07:30:20.846Z,6.98
2023-03-10T07:33:07.872Z,7.19
2023-03-10T07:35:40.964Z,7.41
2023-03-10T07:38:27.862Z,7.68
2023-03-10T07:41:02.069Z,7.92
2023-03-10T07:43:48.877Z,8.17
2023-03-10T07:46:28.976Z,8.41
2023-03-10T07:49:15.838Z,8.66
2023-03-10T07:51:48.976Z,8.94
2023-03-10T07:54:35.857Z,9.29
2023-03-10T07:57:08.976Z,9.56
2023-03-10T07:59:55.878Z,9.81
2023-03-10T08:02:29.153Z,10.04
2023-03-10T08:05:16.927Z,10.26
2023-03-10T08:07:56.856Z,10.56
2023-03-10T08:10:50.879Z,10.81
2023-03-10T08:13:39.214Z,10.96
2023-03-10T08:16:14.964Z,11.09
2023-03-10T08:19:01.884Z,11.16
2023-03-10T08:21:41.855Z,11.28
2023-03-10T08:24:35.882Z,11.34
2023-03-10T08:27:22.893Z,11.41
2023-03-10T08:29:55.972Z,11.52
2023-03-10T08:32:43.707Z,11.57
2023-03-10T08:35:18.219Z,11.61
2023-03-10T08:38:04.862Z,11.73
2023-03-10T08:40:37.975Z,11.86
2023-03-10T08:43:31.894Z,12.01
2023-03-10T08:46:26.938Z,12.15
2023-03-10T08:49:13.905Z,12.29
2023-03-10T08:51:48.289Z,12.45
2023-03-10T08:54:34.884Z,12.63
2023-03-10T08:57:14.889Z,12.76
2023-03-10T09:00:01.908Z,12.88
2023-03-10T09:02:41.925Z,12.98
2023-03-10T09:05:35.906Z,13.16
2023-03-10T09:08:22.927Z,13.25
2023-03-10T09:10:55.985Z,13.25
2023-03-10T09:13:42.904Z,13.41
2023-03-10T09:16:16.074Z,13.58
2023-03-10T09:19:03.896Z,13.59
2023-03-10T09:21:44.928Z,13.74
2023-03-10T09:24:31.935Z,13.81
2023-03-10T09:27:11.894Z,13.87
2023-03-10T09:30:05.944Z,13.84
2023-03-10T09:32:53.072Z,13.74
2023-03-10T09:35:33.952Z,13.54
2023-03-10T09:38:27.924Z,13.39
2023-03-10T09:41:38.421Z,13.45
2023-03-10T09:44:38.907Z,13.64
2023-03-10T09:47:31.942Z,13.74
2023-03-10T09:50:26.091Z,13.63
2023-03-10T09:53:35.900Z,13.56
2023-03-10T09:56:30.007Z,13.45
2023-03-10T09:59:41.906Z,13.44
2023-03-10T10:02:51.993Z,13.48
2023-03-10T10:05:33.560Z,13.58
2023-03-10T10:09:01.904Z,13.56
2023-03-10T10:11:44.911Z,13.58
2023-03-10T10:14:55.050Z,13.62
2023-03-10T10:18:17.861Z,13.63
2023-03-10T10:21:00.382Z,13.65
2023-03-10T10:23:56.942Z,13.66
2023-03-10T10:26:32.059Z,13.64
2023-03-10T10:29:35.932Z,13.60
2023-03-10T10:32:23.131Z,13.62
2023-03-10T10:35:28.945Z,13.62
2023-03-10T10:38:21.936Z,13.70
2023-03-10T10:41:09.949Z,13.76
2023-03-10T10:44:03.930Z,13.79
2023-03-10T10:47:01.957Z,13.79
2023-03-10T10:49:36.067Z,13.82
2023-03-10T10:52:29.988Z,13.94
2023-03-10T10:55:13.978Z,13.84
2023-03-10T10:58:10.944Z,13.78
2023-03-10T11:01:04.973Z,13.69
2023-03-10T11:03:53.267Z,13.68
2023-03-10T11:06:40.956Z,13.68
2023-03-10T11:09:35.967Z,13.75
2023-03-10T11:12:28.978Z,13.73
2023-03-10T11:15:23.995Z,13.79
2023-03-10T11:18:27.952Z,13.88
2023-03-10T11:21:19.969Z,13.95
2023-03-10T11:24:32.163Z,14.05
2023-03-10T11:27:30.962Z,13.98
2023-03-10T11:30:24.917Z,14.01
2023-03-10T11:33:38.972Z,14.22
2023-03-10T11:36:28.975Z,14.20
2023-03-10T11:39:13.199Z,14.21
2023-03-10T11:42:26.223Z,14.17
2023-03-10T11:45:41.030Z,14.23
2023-03-10T11:48:40.081Z,14.32
2023-03-10T11:51:26.003Z,14.31
2023-03-10T11:54:44.001Z,14.24
2023-03-10T11:57:34.974Z,14.18
2023-03-10T12:00:12.079Z,14.24
2023-03-10T12:03:09.020Z,14.11
2023-03-10T12:06:26.794Z,14.09
2023-03-10T12:09:29.988Z,13.98
2023-03-10T12:12:22.004Z,13.94
2023-03-10T12:14:56.078Z,13.86
2023-03-10T12:17:45.008Z,13.73
2023-03-10T12:20:25.007Z,13.68
2023-03-10T12:23:25.020Z,13.74
2023-03-10T12:26:12.011Z,13.73
2023-03-10T12:28:45.449Z,13.68
2023-03-10T12:31:45.565Z,13.68
2023-03-10T12:34:34.730Z,13.68
2023-03-10T12:37:29.046Z,13.68
2023-03-10T12:40:02.175Z,13.62
2023-03-10T12:42:56.006Z,13.56
2023-03-10T12:45:57.023Z,13.48
2023-03-10T12:48:58.010Z,13.48
2023-03-10T12:51:57.022Z,13.55
2023-03-10T12:54:49.006Z,13.51
2023-03-10T12:57:45.032Z,13.47
2023-03-10T13:01:01.061Z,13.39
2023-03-10T13:04:05.126Z,13.31
2023-03-10T13:06:54.071Z,13.35
2023-03-10T13:09:36.215Z,13.32
2023-03-10T13:12:32.083Z,13.29
2023-03-10T13:15:08.933Z,13.32
2023-03-10T13:17:56.080Z,13.33
2023-03-10T13:20:31.144Z,13.39
2023-03-10T13:23:41.111Z,13.38
2023-03-10T13:26:22.534Z,13.41
2023-03-10T13:29:10.075Z,13.33
2023-03-10T13:31:50.139Z,13.31
2023-03-10T13:34:46.073Z,13.28
2023-03-10T13:37:33.022Z,13.28
2023-03-10T13:40:17.250Z,13.25
2023-03-10T13:43:11.040Z,13.23
2023-03-10T13:46:10.191Z,13.11
2023-03-10T13:48:58.091Z,12.94
2023-03-10T13:51:40.173Z,12.80
2023-03-10T13:54:39.022Z,12.65
2023-03-10T13:57:33.204Z,12.54
2023-03-10T14:00:28.089Z,12.45
2023-03-10T14:03:02.636Z,12.43
2023-03-10T14:05:54.080Z,12.36
2023-03-10T14:08:37.086Z,12.33
2023-03-10T14:11:55.066Z,12.37
2023-03-10T14:14:52.024Z,12.33
2023-03-10T14:17:48.102Z,12.33
2023-03-10T14:20:49.033Z,12.30
2023-03-10T14:23:44.078Z,12.30
2023-03-10T14:26:30.072Z,12.27
2023-03-10T14:29:31.133Z,12.22
2023-03-10T14:32:27.120Z,12.23
2023-03-10T14:35:31.105Z,12.17
2023-03-10T14:38:18.097Z,12.08
2023-03-10T14:40:55.709Z,12.06
2023-03-10T14:43:49.110Z,11.86
2023-03-10T14:46:37.175Z,11.65
2023-03-10T14:49:22.075Z,11.59
2023-03-10T14:52:16.075Z,11.50
2023-03-10T14:55:10.110Z,11.39
2023-03-10T14:58:03.114Z,11.35
2023-03-10T15:00:37.244Z,11.26
2023-03-10T15:03:24.076Z,11.21
2023-03-10T15:06:04.084Z,11.13
2023-03-10T15:08:59.105Z,11.04
2023-03-10T15:11:47.105Z,10.99
2023-03-10T15:14:28.270Z,10.91
2023-03-10T15:17:18.101Z,10.90
2023-03-10T15:19:51.261Z,10.83
2023-03-10T15:22:38.089Z,10.75
2023-03-10T15:25:12.221Z,10.72
2023-03-10T15:28:00.117Z,10.68
2023-03-10T15:30:39.207Z,10.66
2023-03-10T15:33:26.115Z,10.62
2023-03-10T15:35:59.293Z,10.60
2023-03-10T15:38:46.084Z,10.56
2023-03-10T15:41:19.469Z,10.55
2023-03-10T15:44:16.117Z,10.54
2023-03-10T15:47:04.110Z,10.54
2023-03-10T15:49:44.094Z,10.53
2023-03-10T15:52:31.165Z,10.55
2023-03-10T15:55:13.823Z,10.55
2023-03-10T15:58:01.106Z,10.54
2023-03-10T16:00:34.263Z,10.53
2023-03-10T16:03:21.101Z,10.51
2023-03-10T16:06:02.106Z,10.50
2023-03-10T16:09:10.111Z,10.47
2023-03-10T16:11:57.169Z,10.47
2023-03-10T16:14:40.114Z,10.45
2023-03-10T16:17:36.110Z,10.40
2023-03-10T16:20:25.154Z,10.38
2023-03-10T16:22:58.460Z,10.37
2023-03-10T16:25:45.116Z,10.33
2023-03-10T16:28:20.517Z,10.32
2023-03-10T16:31:07.270Z,10.30
2023-03-10T16:33:41.318Z,10.29
2023-03-10T16:36:31.160Z,10.25
2023-03-10T16:39:04.279Z,10.22
2023-03-10T16:41:51.157Z,10.20
2023-03-10T16:44:31.147Z,10.19
2023-03-10T16:47:25.163Z,10.17
2023-03-10T16:50:20.183Z,10.15
2023-03-10T16:53:16.155Z,10.11
2023-03-10T16:56:11.138Z,10.02
2023-03-10T16:58:44.366Z,9.93
2023-03-10T17:01:32.168Z,9.85
2023-03-10T17:04:05.258Z,9.79
2023-03-10T17:06:53.154Z,9.73
2023-03-10T17:09:26.271Z,9.70
2023-03-10T17:12:13.148Z,9.64
2023-03-10T17:14:46.302Z,9.57
2023-03-10T17:17:38.112Z,9.51
2023-03-10T17:20:13.821Z,9.48
2023-03-10T17:23:00.170Z,9.45
2023-03-10T17:28:25.156Z,9.35
2023-03-10T17:30:58.280Z,9.31
2023-03-10T17:33:45.154Z,9.26
2023-03-10T17:36:20.429Z,9.24
2023-03-10T17:39:09.155Z,9.22
2023-03-10T17:41:43.297Z,9.18
2023-03-10T17:44:37.236Z,9.14
2023-03-10T17:47:31.156Z,9.14
2023-03-10T17:50:25.198Z,9.11
2023-03-10T17:53:12.330Z,9.07
2023-03-10T17:55:54.182Z,9.03
2023-03-10T17:58:50.194Z,8.97
2023-03-10T18:01:45.160Z,8.96
2023-03-10T18:04:40.182Z,8.94
2023-03-10T18:07:40.197Z,8.96
2023-03-10T18:10:28.190Z,8.95
2023-03-10T18:13:01.321Z,8.93
2023-03-10T18:15:49.256Z,8.88
2023-03-10T18:18:22.272Z,8.84
2023-03-10T18:21:09.205Z,8.80
2023-03-10T18:23:44.289Z,8.75
2023-03-10T18:26:34.188Z,8.71
2023-03-10T18:29:08.299Z,8.68
2023-03-10T18:31:56.275Z,8.66
2023-03-10T18:34:36.181Z,8.62
2023-03-10T18:37:31.220Z,8.56
2023-03-10T18:40:22.185Z,8.51
2023-03-10T18:42:56.304Z,8.48
2023-03-10T18:45:47.700Z,8.44
2023-03-10T18:48:25.370Z,8.41
2023-03-10T18:51:13.234Z,8.38
2023-03-10T18:53:48.299Z,8.36
2023-03-10T18:56:36.231Z,8.36
2023-03-10T18:59:10.289Z,8.37
2023-03-10T19:01:57.279Z,8.35
2023-03-10T19:04:30.406Z,8.32
2023-03-10T19:07:18.277Z,8.30
2023-03-10T19:09:52.325Z,8.30
2023-03-10T19:12:40.294Z,8.27
2023-03-10T19:15:22.377Z,8.25
2023-03-10T19:18:12.389Z,8.20
2023-03-10T19:20:53.405Z,8.19
2023-03-10T19:23:48.250Z,8.15
2023-03-10T19:26:36.913Z,8.13
2023-03-10T19:29:18.611Z,8.11
2023-03-10T19:32:06.501Z,8.12
2023-03-10T19:34:40.518Z,8.08
2023-03-10T19:37:28.687Z,8.06
2023-03-10T19:40:02.466Z,8.02
2023-03-10T19:42:50.398Z,8.02
2023-03-10T19:45:25.439Z,7.97
2023-03-10T19:48:05.324Z,7.93
2023-03-10T19:50:45.497Z,7.88
2023-03-10T19:53:21.693Z,7.83
2023-03-10T19:56:11.645Z,7.81
2023-03-10T19:58:45.462Z,7.79
2023-03-10T20:01:33.365Z,7.80
2023-03-10T20:04:16.237Z,7.75
2023-03-10T20:07:10.653Z,7.73
2023-03-10T20:10:06.520Z,7.73
2023-03-10T20:13:00.604Z,7.70
2023-03-10T20:15:35.486Z,7.67
2023-03-10T20:18:25.241Z,7.66
2023-03-10T20:21:05.216Z,7.67
2023-03-10T20:23:55.959Z,7.66
2023-03-10T20:26:37.242Z,7.64
2023-03-10T20:29:24.290Z,7.66
2023-03-10T20:31:57.475Z,7.70
2023-03-10T20:34:47.254Z,7.73
2023-03-10T20:37:20.359Z,7.80
2023-03-10T20:40:07.243Z,7.83
2023-03-10T20:42:41.434Z,7.83
2023-03-10T20:45:36.341Z,7.82
2023-03-10T20:48:30.274Z,7.82
2023-03-10T20:51:26.230Z,7.80
2023-03-10T20:54:22.351Z,7.80
2023-03-10T20:57:10.223Z,7.77
2023-03-10T20:59:44.330Z,7.73
2023-03-10T21:02:31.240Z,7.71
2023-03-10T21:05:06.106Z,7.72
2023-03-10T21:07:53.230Z,7.72
2023-03-10T21:10:27.743Z,7.72
2023-03-10T21:13:14.282Z,7.69
2023-03-10T21:15:47.335Z,7.69
2023-03-10T21:18:34.293Z,7.67
2023-03-10T21:21:17.251Z,7.68
2023-03-10T21:24:11.278Z,7.68
2023-03-10T21:26:58.276Z,7.66
2023-03-10T21:29:31.744Z,7.66
2023-03-10T21:32:18.317Z,7.67
2023-03-10T21:35:00.319Z,7.65
2023-03-10T21:37:56.285Z,7.64
2023-03-10T21:40:50.281Z,7.64
2023-03-10T21:43:37.219Z,7.59
2023-03-10T21:46:11.126Z,7.57
2023-03-10T21:49:01.264Z,7.55
2023-03-10T21:51:35.040Z,7.53
2023-03-10T21:54:21.283Z,7.50
2023-03-10T21:56:54.649Z,7.48
2023-03-10T21:59:41.278Z,7.49
2023-03-10T22:02:14.397Z,7.47
2023-03-10T22:05:01.268Z,7.45
2023-03-10T22:07:41.278Z,7.38
2023-03-10T22:10:35.281Z,7.35
2023-03-10T22:13:22.303Z,7.32
2023-03-10T22:15:55.396Z,7.27
2023-03-10T22:18:42.290Z,7.22
2023-03-10T22:21:15.351Z,7.17
2023-03-10T22:24:02.300Z,7.13
2023-03-10T22:26:35.380Z,7.12
2023-03-10T22:29:22.353Z,7.05
2023-03-10T22:32:04.278Z,7.01
2023-03-10T22:34:58.283Z,6.98
2023-03-10T22:37:46.278Z,6.94
2023-03-10T22:40:23.363Z,6.91
2023-03-10T22:43:10.286Z,6.88
2023-03-10T22:45:44.391Z,6.83
2023-03-10T22:48:31.268Z,6.81
2023-03-10T22:51:04.365Z,6.80
2023-03-10T22:53:53.261Z,6.82
2023-03-10T22:56:26.381Z,6.81
2023-03-10T22:59:13.334Z,6.81
2023-03-10T23:01:46.435Z,6.81
2023-03-10T23:04:33.273Z,6.81
2023-03-10T23:07:13.287Z,6.80
2023-03-10T23:10:07.292Z,6.80
2023-03-10T23:12:54.289Z,6.79
2023-03-10T23:15:30.419Z,6.79
2023-03-10T23:18:17.296Z,6.78
2023-03-10T23:21:01.291Z,6.79
2023-03-10T23:23:50.306Z,6.78
2023-03-10T23:26:30.322Z,6.79
2023-03-10T23:29:24.300Z,6.77
2023-03-10T23:32:12.378Z,6.79
2023-03-10T23:34:45.418Z,6.78
2023-03-10T23:37:32.307Z,6.77
2023-03-10T23:40:17.285Z,6.75
2023-03-10T23:43:12.342Z,6.75
2023-03-10T23:46:06.322Z,6.73
2023-03-10T23:49:00.320Z,6.73
2023-03-10T23:51:47.429Z,6.71
2023-03-10T23:54:29.301Z,6.69
2023-03-10T23:57:16.312Z,6.67
2023-03-10T23:59:49.754Z,6.68
